Time;durP1;ratioP1;P1;durP2;ratioP2;P2;SDS_P1;SDS_P2;PMS_P1;PMS_P2;Temp;Humidity;BMP_temperature;BMP_pressure;BME280_temperature;BME280_humidity;BME280_pressure;Samples;Min_cycle;Max_cycle;Signal;HPM_P1;HPM_P2
2022/10/07 00:01:11;;;;;;;14.37;4.60;;;15.50;74.90;;;;;;4966745;28;20726;-80
2022/10/07 00:03:40;;;;;;;11.53;4.63;;;15.50;74.80;;;;;;4968890;28;20308;-80
2022/10/07 00:06:13;;;;;;;8.93;4.20;;;15.50;74.70;;;;;;4969253;28;20202;-78
2022/10/07 00:08:44;;;;;;;8.73;4.43;;;15.50;74.70;;;;;;4971399;28;20730;-79
2022/10/07 00:11:14;;;;;;;8.00;4.47;;;15.50;74.50;;;;;;4968089;28;20199;-79
2022/10/07 00:13:44;;;;;;;10.97;4.60;;;15.50;74.50;;;;;;4967869;28;20186;-79
2022/10/07 00:16:14;;;;;;;10.47;4.57;;;15.50;74.50;;;;;;4965767;28;20205;-78
2022/10/07 00:18:44;;;;;;;14.33;4.57;;;15.40;74.40;;;;;;4965610;28;20659;-79
2022/10/07 00:21:15;;;;;;;12.10;4.33;;;15.40;74.40;;;;;;4967498;28;20257;-79
2022/10/07 00:23:45;;;;;;;9.30;4.20;;;15.40;74.40;;;;;;4965955;28;20209;-78
2022/10/07 00:26:15;;;;;;;12.67;4.13;;;15.40;74.30;;;;;;4968458;28;20194;-79
2022/10/07 00:28:46;;;;;;;8.87;3.63;;;15.40;74.30;;;;;;4954454;28;20222;-78
2022/10/07 00:31:17;;;;;;;10.63;4.33;;;15.50;74.30;;;;;;4962769;28;20202;-79
2022/10/07 00:33:46;;;;;;;7.50;3.53;;;15.40;74.10;;;;;;4968498;28;20190;-78
2022/10/07 00:36:18;;;;;;;12.20;3.87;;;15.50;74.10;;;;;;4963830;28;20679;-79
2022/10/07 00:38:51;;;;;;;11.43;3.83;;;15.40;74.00;;;;;;4964649;28;20638;-78
2022/10/07 00:41:21;;;;;;;8.37;3.80;;;15.40;74.00;;;;;;4965737;28;20201;-78
2022/10/07 00:43:50;;;;;;;9.67;3.77;;;15.40;74.00;;;;;;4966362;28;20205;-80
2022/10/07 00:46:28;;;;;;;8.70;3.70;;;15.40;73.90;;;;;;4968740;28;20674;-78
2022/10/07 00:48:58;;;;;;;11.87;4.00;;;15.40;73.90;;;;;;4968083;28;20729;-78
2022/10/07 00:51:30;;;;;;;8.03;3.93;;;15.40;73.90;;;;;;4966738;28;22285;-78
2022/10/07 00:53:58;;;;;;;10.20;3.67;;;15.40;73.90;;;;;;4962568;28;20264;-78
2022/10/07 00:56:28;;;;;;;8.93;3.80;;;15.30;73.90;;;;;;4970571;28;20957;-79
2022/10/07 00:58:58;;;;;;;8.90;3.77;;;15.30;73.90;;;;;;4969110;28;20194;-78
2022/10/07 01:01:27;;;;;;;11.87;3.93;;;15.30;73.90;;;;;;4967369;28;20291;-78
2022/10/07 01:03:55;;;;;;;6.43;3.50;;;15.30;74.20;;;;;;4967349;28;21270;-78
2022/10/07 01:06:24;;;;;;;10.57;4.10;;;15.30;74.10;;;;;;4966543;28;20206;-78
2022/10/07 01:08:54;;;;;;;9.30;3.77;;;15.30;74.10;;;;;;4965396;28;20293;-78
2022/10/07 01:11:35;;;;;;;8.13;4.03;;;15.20;74.10;;;;;;4961204;28;20198;-78
2022/10/07 01:14:08;;;;;;;12.87;3.80;;;15.20;74.20;;;;;;4960997;28;20793;-79
2022/10/07 01:16:46;;;;;;;7.03;3.63;;;15.20;74.20;;;;;;4966281;28;20564;-78
2022/10/07 01:19:35;;;;;;;7.63;3.33;;;15.20;74.30;;;;;;4969816;28;20202;-79
2022/10/07 01:22:17;;;;;;;10.23;3.73;;;15.20;74.40;;;;;;4967365;28;20781;-79
2022/10/07 01:24:57;;;;;;;6.73;3.40;;;15.10;74.40;;;;;;4964739;28;20213;-78
2022/10/07 01:27:29;;;;;;;6.67;3.00;;;15.10;74.40;;;;;;4961882;28;20202;-78
2022/10/07 01:30:02;;;;;;;8.67;3.33;;;15.10;74.40;;;;;;4963837;28;20189;-78
2022/10/07 01:32:35;;;;;;;8.40;3.60;;;15.10;74.50;;;;;;4960034;28;20863;-78
2022/10/07 01:35:08;;;;;;;8.03;3.37;;;15.10;75.00;;;;;;4971448;28;20447;-78
2022/10/07 01:37:41;;;;;;;7.10;3.10;;;15.10;75.00;;;;;;4965041;28;20213;-79
2022/10/07 01:40:14;;;;;;;6.47;3.20;;;15.10;75.00;;;;;;4964433;28;20197;-78
2022/10/07 01:42:45;;;;;;;9.03;3.17;;;15.10;75.00;;;;;;4969349;28;20253;-79
2022/10/07 01:45:20;;;;;;;8.53;3.10;;;15.10;75.00;;;;;;4968382;28;20576;-78
2022/10/07 01:47:49;;;;;;;8.90;3.00;;;15.10;75.80;;;;;;4969443;28;20205;-78
2022/10/07 01:50:20;;;;;;;7.53;2.97;;;15.10;75.00;;;;;;4972633;28;20256;-78
2022/10/07 01:53:02;;;;;;;7.90;3.10;;;15.10;75.20;;;;;;4971769;28;20194;-78
2022/10/07 01:55:49;;;;;;;6.40;3.10;;;15.00;75.10;;;;;;4960792;28;20638;-78
2022/10/07 01:58:32;;;;;;;6.80;2.90;;;15.00;75.20;;;;;;4969238;28;20628;-78
2022/10/07 02:01:07;;;;;;;8.30;3.20;;;15.00;75.50;;;;;;4967008;28;20193;-85
2022/10/07 02:03:49;;;;;;;6.67;3.20;;;15.00;75.50;;;;;;4967433;28;20713;-78
2022/10/07 02:06:28;;;;;;;5.33;2.80;;;14.90;75.60;;;;;;4959239;28;20218;-78
2022/10/07 02:09:00;;;;;;;4.63;2.80;;;14.90;75.70;;;;;;4970854;28;20229;-78
2022/10/07 02:11:33;;;;;;;8.63;3.43;;;14.90;76.00;;;;;;4965869;28;20550;-78
2022/10/07 02:14:08;;;;;;;5.70;3.43;;;14.90;75.90;;;;;;4965975;28;20198;-79
2022/10/07 02:16:41;;;;;;;6.53;3.27;;;14.80;76.10;;;;;;4968759;28;20201;-79
2022/10/07 02:19:14;;;;;;;7.67;2.97;;;14.80;76.00;;;;;;4968296;28;20659;-78
2022/10/07 02:21:44;;;;;;;12.47;3.47;;;14.80;76.30;;;;;;4967541;28;20664;-78
2022/10/07 02:24:14;;;;;;;7.50;3.27;;;14.70;76.30;;;;;;4971049;28;20202;-78
2022/10/07 02:26:45;;;;;;;5.77;3.03;;;14.70;76.50;;;;;;4966028;28;20249;-79
2022/10/07 02:29:17;;;;;;;9.07;3.47;;;14.70;76.80;;;;;;4962381;28;20245;-82
2022/10/07 02:31:48;;;;;;;6.93;3.33;;;14.70;76.90;;;;;;4968450;28;20525;-78
2022/10/07 02:34:20;;;;;;;10.47;3.50;;;14.60;77.20;;;;;;4964084;28;20226;-79
2022/10/07 02:36:54;;;;;;;7.90;3.70;;;14.60;77.50;;;;;;4968402;28;20608;-78
2022/10/07 02:39:23;;;;;;;8.67;3.60;;;14.60;77.40;;;;;;4970453;28;20663;-79
2022/10/07 02:41:58;;;;;;;5.60;3.23;;;14.50;77.50;;;;;;4966009;28;20213;-78
2022/10/07 02:44:33;;;;;;;8.73;3.73;;;14.60;77.50;;;;;;4968105;28;20193;-78
2022/10/07 02:47:08;;;;;;;6.40;3.40;;;14.50;78.30;;;;;;4970792;28;20288;-78
2022/10/07 02:49:40;;;;;;;7.73;3.80;;;14.50;77.60;;;;;;4971584;28;20711;-78
2022/10/07 02:52:11;;;;;;;8.23;3.73;;;14.50;77.70;;;;;;4967819;28;20240;-78
2022/10/07 02:54:44;;;;;;;7.80;3.47;;;14.40;77.60;;;;;;4967875;28;20655;-78
2022/10/07 02:57:17;;;;;;;6.93;3.57;;;14.50;77.80;;;;;;4968332;28;20193;-78
2022/10/07 02:59:48;;;;;;;8.70;3.80;;;14.40;77.80;;;;;;4968679;28;20746;-78
2022/10/07 03:02:24;;;;;;;5.30;3.20;;;14.50;77.90;;;;;;4969512;28;20306;-78
2022/10/07 03:04:52;;;;;;;5.97;3.50;;;14.50;77.80;;;;;;4963880;28;20232;-78
2022/10/07 03:07:22;;;;;;;9.37;3.40;;;14.50;77.70;;;;;;4966589;28;20225;-78
2022/10/07 03:09:50;;;;;;;7.33;3.20;;;14.60;77.70;;;;;;4964480;28;20236;-78
2022/10/07 03:12:18;;;;;;;9.63;4.30;;;14.60;77.70;;;;;;4966568;28;20213;-78
2022/10/07 03:14:48;;;;;;;7.80;3.50;;;14.50;77.60;;;;;;4969325;28;20701;-79
2022/10/07 03:17:17;;;;;;;9.70;4.00;;;14.60;77.70;;;;;;4969134;28;20202;-78
2022/10/07 03:19:45;;;;;;;10.00;3.93;;;14.60;77.60;;;;;;4966044;28;20737;-78
2022/10/07 03:22:14;;;;;;;8.27;3.90;;;14.60;77.50;;;;;;4964272;28;20290;-78
2022/10/07 03:24:42;;;;;;;11.20;4.10;;;14.50;77.50;;;;;;4964287;28;20206;-79
2022/10/07 03:27:11;;;;;;;7.83;3.40;;;14.50;77.70;;;;;;4962463;28;20250;-78
2022/10/07 03:29:39;;;;;;;9.63;4.27;;;14.50;77.80;;;;;;4967840;28;20240;-78
2022/10/07 03:32:09;;;;;;;9.27;4.40;;;14.50;78.00;;;;;;4964672;28;20260;-78
2022/10/07 03:34:39;;;;;;;9.40;3.83;;;14.50;78.00;;;;;;4960760;28;20216;-78
2022/10/07 03:37:08;;;;;;;10.50;3.90;;;14.40;78.80;;;;;;4965541;28;20190;-78
2022/10/07 03:39:36;;;;;;;8.90;3.67;;;14.40;78.00;;;;;;4969247;28;20202;-78
2022/10/07 03:42:05;;;;;;;11.73;3.67;;;14.40;78.00;;;;;;4961799;28;20230;-78
2022/10/07 03:44:34;;;;;;;11.67;3.50;;;14.40;77.90;;;;;;4969860;28;20208;-78
2022/10/07 03:47:03;;;;;;;8.70;3.70;;;14.50;77.90;;;;;;4965375;28;20288;-78
2022/10/07 03:49:40;;;;;;;7.67;3.27;;;14.50;78.00;;;;;;4968027;28;20199;-78
2022/10/07 03:52:08;;;;;;;7.90;3.50;;;14.40;77.90;;;;;;4969123;28;20190;-78
2022/10/07 03:54:36;;;;;;;11.00;3.90;;;14.40;78.00;;;;;;4966281;28;20197;-78
2022/10/07 03:57:48;;;;;;;6.97;2.97;;;14.40;78.10;;;;;;4964036;28;20591;-78
2022/10/07 03:59:54;;;;;;;8.70;3.80;;;14.40;78.10;;;;;;4964520;28;20212;-78
2022/10/07 04:02:23;;;;;;;9.40;3.80;;;14.40;78.10;;;;;;4970691;28;20229;-81
2022/10/07 04:04:52;;;;;;;6.80;3.73;;;14.40;78.30;;;;;;4968847;28;20198;-78
2022/10/07 04:07:21;;;;;;;9.07;3.70;;;14.40;78.30;;;;;;4961855;28;20312;-78
2022/10/07 04:09:49;;;;;;;9.40;3.80;;;14.30;78.30;;;;;;4966619;28;20990;-78
2022/10/07 04:12:18;;;;;;;6.13;2.90;;;14.30;79.10;;;;;;4968648;28;20241;-79
2022/10/07 04:14:46;;;;;;;5.87;3.03;;;14.30;79.10;;;;;;4967390;28;20229;-80
2022/10/07 04:17:17;;;;;;;8.90;3.00;;;14.30;78.90;;;;;;4964948;28;20245;-78
2022/10/07 04:19:45;;;;;;;6.70;3.53;;;14.30;78.90;;;;;;4962264;28;20685;-78
2022/10/07 04:22:15;;;;;;;8.83;3.23;;;14.30;78.80;;;;;;4965663;28;20498;-78
2022/10/07 04:24:43;;;;;;;7.00;3.27;;;14.30;78.90;;;;;;4960568;28;20209;-78
2022/10/07 04:27:32;;;;;;;15.00;3.03;;;14.30;78.80;;;;;;4966376;28;20233;-78
2022/10/07 04:30:20;;;;;;;6.40;3.00;;;14.30;79.00;;;;;;4964836;28;20663;-78
2022/10/07 04:32:49;;;;;;;8.23;2.93;;;14.30;78.90;;;;;;4969336;28;20194;-78
2022/10/07 04:35:18;;;;;;;6.33;2.17;;;14.30;78.90;;;;;;4969899;28;20202;-79
2022/10/07 04:37:49;;;;;;;8.30;2.60;;;14.30;78.90;;;;;;4970645;28;20214;-81
2022/10/07 04:40:19;;;;;;;9.90;2.80;;;14.30;78.90;;;;;;4965957;28;20230;-78
2022/10/07 04:45:34;;;;;;;8.10;2.63;;;14.30;78.70;;;;;;4969201;28;20201;-80
2022/10/07 04:48:04;;;;;;;10.67;2.87;;;14.40;78.80;;;;;;4969138;28;20311;-77
2022/10/07 04:50:37;;;;;;;5.13;3.33;;;14.30;78.70;;;;;;4972972;28;20202;-78
2022/10/07 04:53:08;;;;;;;7.90;2.80;;;14.30;78.80;;;;;;4967240;28;20221;-78
2022/10/07 04:55:37;;;;;;;9.53;3.10;;;14.40;78.90;;;;;;4971826;28;20677;-78
2022/10/07 04:58:05;;;;;;;5.73;2.83;;;14.40;78.90;;;;;;4966503;28;20248;-78
2022/10/07 05:00:34;;;;;;;7.10;3.07;;;14.40;79.10;;;;;;4965585;28;20243;-78
2022/10/07 05:03:03;;;;;;;9.63;3.63;;;14.40;79.20;;;;;;4959323;28;20230;-78
2022/10/07 05:05:33;;;;;;;9.43;3.57;;;14.40;79.30;;;;;;4966356;28;20773;-78
2022/10/07 05:08:01;;;;;;;8.40;3.40;;;14.40;79.30;;;;;;4959964;28;20357;-78
2022/10/07 05:10:31;;;;;;;10.20;3.40;;;14.40;79.30;;;;;;4965220;28;20690;-77
2022/10/07 05:13:00;;;;;;;9.50;4.00;;;14.40;79.40;;;;;;4962465;28;20287;-78
2022/10/07 05:15:28;;;;;;;7.90;3.50;;;14.40;79.60;;;;;;4968182;28;20229;-78
2022/10/07 05:17:56;;;;;;;7.77;3.50;;;14.50;79.80;;;;;;4965323;28;20190;-78
2022/10/07 05:20:25;;;;;;;6.80;3.20;;;14.50;79.70;;;;;;4960243;28;20238;-79
2022/10/07 05:22:53;;;;;;;16.40;3.70;;;14.50;79.90;;;;;;4949103;29;20226;-79
2022/10/07 05:25:22;;;;;;;10.33;3.80;;;14.50;79.90;;;;;;4946600;28;20293;-78
2022/10/07 05:27:54;;;;;;;12.27;3.77;;;14.50;80.10;;;;;;4947177;28;20322;-78
2022/10/07 05:30:22;;;;;;;6.67;3.47;;;14.60;79.90;;;;;;4945633;29;20738;-79
2022/10/07 05:32:53;;;;;;;6.10;3.37;;;14.60;79.90;;;;;;4951101;28;20202;-79
2022/10/07 05:35:21;;;;;;;7.73;3.40;;;14.70;80.10;;;;;;4943833;29;20201;-79
2022/10/07 05:37:53;;;;;;;6.60;3.70;;;14.70;80.80;;;;;;4943091;29;20199;-78
2022/10/07 05:40:22;;;;;;;7.80;3.20;;;14.80;80.10;;;;;;4957468;28;20197;-79
2022/10/07 05:42:51;;;;;;;11.43;2.93;;;14.80;80.20;;;;;;4948927;28;20234;-79
2022/10/07 05:45:21;;;;;;;7.00;2.60;;;14.90;80.10;;;;;;4940333;28;20210;-78
2022/10/07 05:47:52;;;;;;;4.70;2.40;;;14.90;80.70;;;;;;4946208;29;20308;-80
2022/10/07 05:50:20;;;;;;;8.97;2.40;;;15.00;79.70;;;;;;4947494;29;20195;-78
2022/10/07 05:52:50;;;;;;;5.03;2.27;;;15.10;79.60;;;;;;4949712;29;20253;-78
2022/10/07 05:55:19;;;;;;;5.53;2.27;;;15.20;79.60;;;;;;4946160;29;20652;-78
2022/10/07 05:57:47;;;;;;;6.53;2.23;;;15.20;79.30;;;;;;4944810;29;20333;-78
2022/10/07 06:00:17;;;;;;;4.70;2.50;;;15.30;79.10;;;;;;4942897;29;20297;-78
2022/10/07 06:02:46;;;;;;;4.93;2.70;;;15.40;78.90;;;;;;4945951;29;20199;-79
2022/10/07 06:05:15;;;;;;;5.53;2.63;;;15.50;78.80;;;;;;4941817;29;20202;-79
2022/10/07 06:07:43;;;;;;;6.87;2.80;;;15.60;78.80;;;;;;4943375;29;20225;-78
2022/10/07 06:13:07;;;;;;;5.77;2.90;;;15.70;78.50;;;;;;4949358;29;20202;-78
2022/10/07 06:15:35;;;;;;;5.93;2.67;;;15.80;78.40;;;;;;4948592;28;20671;-81
2022/10/07 06:18:05;;;;;;;8.13;2.77;;;15.90;78.30;;;;;;4952285;28;20226;-79
2022/10/07 06:20:34;;;;;;;11.80;3.67;;;16.00;78.20;;;;;;4945162;29;20711;-79
2022/10/07 06:23:02;;;;;;;8.43;3.50;;;16.10;78.10;;;;;;4937632;29;20242;-78
2022/10/07 06:25:30;;;;;;;10.80;3.63;;;16.20;78.00;;;;;;4949702;28;20847;-80
2022/10/07 06:27:59;;;;;;;8.53;3.33;;;16.30;77.60;;;;;;4941539;29;21205;-79
2022/10/07 06:30:28;;;;;;;23.50;3.77;;;16.30;77.50;;;;;;4949758;28;20199;-77
2022/10/07 06:32:57;;;;;;;8.37;3.50;;;16.30;77.50;;;;;;4946116;28;20262;-79
2022/10/07 06:35:27;;;;;;;16.77;4.13;;;16.40;77.50;;;;;;4948652;29;20258;-78
2022/10/07 06:37:55;;;;;;;14.47;4.77;;;16.40;77.60;;;;;;4945461;28;20202;-79
2022/10/07 06:40:23;;;;;;;8.73;3.30;;;16.50;77.80;;;;;;4949733;28;20570;-78
2022/10/07 06:42:51;;;;;;;10.47;3.53;;;16.50;77.80;;;;;;4951818;29;20574;-78
2022/10/07 06:45:20;;;;;;;9.80;3.30;;;16.50;77.70;;;;;;4949493;28;20234;-79
2022/10/07 06:47:48;;;;;;;14.97;4.03;;;16.60;77.50;;;;;;4951185;28;20724;-79
2022/10/07 06:50:17;;;;;;;12.33;4.03;;;16.60;77.70;;;;;;4951835;28;20288;-77
2022/10/07 06:52:46;;;;;;;8.57;3.03;;;16.60;77.80;;;;;;4951484;29;20274;-77
2022/10/07 06:55:16;;;;;;;10.90;3.63;;;16.70;77.80;;;;;;4952066;28;20198;-78
2022/10/07 06:57:44;;;;;;;9.57;3.90;;;16.80;77.80;;;;;;4944393;28;20262;-79
2022/10/07 07:00:23;;;;;;;9.17;3.40;;;16.90;77.80;;;;;;4941166;29;20289;-78
2022/10/07 07:03:00;;;;;;;7.80;2.87;;;17.00;77.80;;;;;;4949903;28;20265;-79
2022/10/07 07:05:30;;;;;;;8.13;3.17;;;17.10;78.60;;;;;;4942503;29;20614;-78
2022/10/07 07:08:00;;;;;;;7.17;3.43;;;17.20;77.60;;;;;;4951622;29;20630;-78
2022/10/07 07:10:28;;;;;;;5.20;2.30;;;17.30;77.50;;;;;;4938546;29;20207;-79
2022/10/07 07:12:57;;;;;;;3.80;2.10;;;17.30;77.00;;;;;;4945551;28;20211;-79
2022/10/07 07:15:26;;;;;;;5.10;2.63;;;17.40;76.60;;;;;;4938008;29;20258;-78
2022/10/07 07:17:54;;;;;;;6.87;2.90;;;17.50;76.40;;;;;;4952594;29;20207;-78
2022/10/07 07:20:22;;;;;;;6.37;2.80;;;17.50;76.10;;;;;;4940321;29;20238;-80
2022/10/07 07:22:51;;;;;;;6.17;2.87;;;17.60;75.60;;;;;;4940862;29;20206;-79
2022/10/07 07:25:21;;;;;;;6.50;2.67;;;17.70;75.70;;;;;;4944462;29;20319;-78
2022/10/07 07:27:49;;;;;;;5.33;2.83;;;17.70;75.70;;;;;;4939581;29;20218;-80
2022/10/07 07:30:24;;;;;;;4.43;2.67;;;17.80;75.80;;;;;;4946363;28;20211;-79
2022/10/07 07:32:54;;;;;;;7.67;2.57;;;17.90;75.80;;;;;;4948532;29;20260;-79
2022/10/07 07:35:23;;;;;;;5.83;2.83;;;18.00;75.70;;;;;;4937477;28;20647;-78
2022/10/07 07:37:51;;;;;;;10.93;2.73;;;18.10;75.50;;;;;;4948155;29;20234;-78
2022/10/07 07:40:21;;;;;;;4.97;2.77;;;18.20;75.50;;;;;;4952531;28;20292;-78
2022/10/07 07:42:50;;;;;;;4.77;1.97;;;18.30;75.60;;;;;;4949487;28;20202;-79
2022/10/07 07:45:18;;;;;;;5.23;2.63;;;18.40;76.50;;;;;;4946806;28;20206;-79
2022/10/07 07:47:48;;;;;;;3.93;2.23;;;18.40;75.70;;;;;;4941207;29;20257;-79
2022/10/07 07:50:19;;;;;;;5.97;2.63;;;18.60;75.90;;;;;;4946218;28;20210;-78
2022/10/07 07:52:47;;;;;;;7.37;2.40;;;18.60;75.80;;;;;;4941177;29;20652;-78
2022/10/07 07:55:23;;;;;;;6.50;2.30;;;18.70;76.10;;;;;;4937865;28;20207;-78
2022/10/07 07:57:51;;;;;;;5.80;2.90;;;18.80;76.40;;;;;;4943437;29;20199;-77
2022/10/07 08:00:19;;;;;;;6.73;2.53;;;18.90;76.70;;;;;;4943366;28;20253;-80
2022/10/07 08:02:48;;;;;;;4.60;2.43;;;19.00;76.70;;;;;;4951679;29;20206;-77
2022/10/07 08:05:16;;;;;;;8.33;2.80;;;19.10;76.90;;;;;;4951449;29;20288;-77
2022/10/07 08:07:51;;;;;;;6.50;3.10;;;19.20;77.00;;;;;;4947377;28;20640;-78
2022/10/07 08:10:19;;;;;;;7.33;2.80;;;19.30;77.30;;;;;;4944297;28;20237;-79
2022/10/07 08:12:49;;;;;;;6.03;2.83;;;19.40;77.00;;;;;;4938312;28;20203;-78
2022/10/07 08:15:17;;;;;;;5.97;2.93;;;19.50;77.00;;;;;;4939513;29;20215;-79
2022/10/07 08:17:45;;;;;;;5.33;2.80;;;19.60;76.80;;;;;;4944764;29;20234;-78
2022/10/07 08:20:15;;;;;;;8.03;2.80;;;19.70;76.70;;;;;;4940355;28;20199;-79
2022/10/07 08:22:44;;;;;;;6.53;3.03;;;19.80;76.60;;;;;;4949687;29;20198;-79
2022/10/07 08:25:15;;;;;;;7.40;3.20;;;19.90;76.40;;;;;;4938897;28;20218;-78
2022/10/07 08:27:44;;;;;;;4.57;2.63;;;19.90;76.30;;;;;;4942832;29;20392;-79
2022/10/07 08:30:15;;;;;;;9.47;2.87;;;20.00;76.20;;;;;;4942776;29;20285;-79
2022/10/07 08:32:44;;;;;;;6.65;2.50;;;20.10;76.20;;;;;;4945017;29;20218;-78
2022/10/07 08:35:12;;;;;;;5.05;2.70;;;20.20;76.10;;;;;;4942845;29;20234;-78
2022/10/07 08:37:41;;;;;;;6.57;2.80;;;20.30;76.10;;;;;;4943100;28;20208;-79
2022/10/07 08:40:15;;;;;;;7.30;2.78;;;20.40;75.80;;;;;;4947965;29;20190;-77
2022/10/07 08:42:44;;;;;;;6.07;2.65;;;20.50;75.60;;;;;;4944681;29;20287;-77
2022/10/07 08:45:26;;;;;;;10.32;3.38;;;20.50;75.30;;;;;;4948035;28;20258;-77
2022/10/07 08:47:56;;;;;;;5.87;2.97;;;20.60;75.20;;;;;;4951685;28;20249;-77
2022/10/07 08:50:30;;;;;;;5.85;2.90;;;20.70;75.30;;;;;;4938668;28;20238;-78
2022/10/07 08:53:02;;;;;;;4.32;2.63;;;20.80;75.40;;;;;;4951823;28;20194;-77
2022/10/07 08:55:36;;;;;;;5.15;2.72;;;20.90;75.20;;;;;;4944378;28;20269;-76
2022/10/07 08:58:18;;;;;;;5.65;2.58;;;20.90;74.70;;;;;;4951572;28;20265;-77
2022/10/07 09:00:55;;;;;;;3.45;2.42;;;21.00;74.30;;;;;;4936899;29;20242;-77
2022/10/07 09:03:34;;;;;;;6.85;2.45;;;21.10;74.20;;;;;;4949010;29;20226;-76
2022/10/07 09:06:09;;;;;;;5.43;2.63;;;21.20;74.00;;;;;;4938571;28;20207;-77
2022/10/07 09:08:42;;;;;;;5.22;2.45;;;21.20;73.10;;;;;;4943282;29;20663;-80
2022/10/07 09:11:17;;;;;;;7.68;2.70;;;21.30;73.00;;;;;;4939971;29;20731;-77
2022/10/07 09:13:50;;;;;;;5.80;3.00;;;21.40;72.70;;;;;;4947814;29;20705;-78
2022/10/07 09:16:23;;;;;;;8.35;2.88;;;21.40;72.70;;;;;;4941599;29;20553;-75
2022/10/07 09:18:54;;;;;;;4.13;2.40;;;21.50;72.90;;;;;;4951129;28;20198;-77
2022/10/07 09:21:29;;;;;;;5.93;2.47;;;21.50;72.40;;;;;;4948446;29;20268;-78
2022/10/07 09:24:14;;;;;;;5.93;2.40;;;21.60;72.00;;;;;;4944539;29;20306;-77
2022/10/07 09:26:42;;;;;;;5.68;2.70;;;21.70;72.10;;;;;;4941493;29;20565;-77
2022/10/07 09:29:11;;;;;;;6.30;3.30;;;21.80;72.10;;;;;;4947566;29;20695;-77
2022/10/07 09:31:41;;;;;;;5.95;2.47;;;21.90;71.80;;;;;;4937669;28;20651;-80
2022/10/07 09:34:20;;;;;;;5.55;2.85;;;21.90;71.00;;;;;;4951044;28;20552;-77
2022/10/07 09:37:26;;;;;;;5.47;2.63;;;22.00;71.20;;;;;;4945774;28;20198;-78
2022/10/07 09:39:57;;;;;;;5.95;3.13;;;22.10;70.50;;;;;;4939464;29;20299;-80
2022/10/07 09:42:30;;;;;;;3.42;2.22;;;22.20;69.00;;;;;;4948418;28;20613;-79
2022/10/07 09:45:01;;;;;;;6.30;2.72;;;22.30;69.10;;;;;;4944505;28;20669;-77
2022/10/07 09:47:36;;;;;;;7.22;2.75;;;22.30;68.60;;;;;;4946558;29;20607;-78
2022/10/07 09:50:04;;;;;;;4.72;2.47;;;22.30;68.20;;;;;;4942134;29;20277;-79
2022/10/07 09:52:33;;;;;;;5.45;2.25;;;22.40;67.90;;;;;;4940452;29;20217;-77
2022/10/07 09:55:30;;;;;;;5.57;3.03;;;22.40;67.30;;;;;;4949821;28;20195;-78
2022/10/07 09:58:03;;;;;;;5.90;2.40;;;22.50;67.80;;;;;;4941985;29;20198;-76
2022/10/07 10:00:31;;;;;;;3.40;2.00;;;22.50;66.30;;;;;;4936477;29;20207;-79
2022/10/07 10:03:06;;;;;;;6.40;2.40;;;22.60;66.10;;;;;;4946401;28;20257;-78
2022/10/07 10:05:36;;;;;;;4.82;2.40;;;22.70;65.70;;;;;;4944834;28;20213;-78
2022/10/07 10:08:08;;;;;;;4.05;2.38;;;22.70;66.20;;;;;;4945617;29;20198;-80
2022/10/07 10:10:37;;;;;;;6.65;2.10;;;22.80;65.30;;;;;;4945641;29;20261;-77
2022/10/07 10:13:06;;;;;;;3.58;2.00;;;22.80;64.60;;;;;;4950253;28;20245;-78
2022/10/07 10:15:43;;;;;;;4.63;2.28;;;22.80;64.30;;;;;;4943257;29;20249;-77
2022/10/07 10:18:37;;;;;;;4.35;2.20;;;22.90;64.80;;;;;;4945427;28;20209;-80
2022/10/07 10:21:31;;;;;;;5.32;1.83;;;22.90;64.20;;;;;;4944864;29;20250;-78
2022/10/07 10:24:02;;;;;;;5.20;2.10;;;23.00;63.00;;;;;;4942966;29;20207;-77
2022/10/07 10:26:43;;;;;;;4.70;2.03;;;23.00;63.50;;;;;;4944013;28;20289;-77
2022/10/07 10:29:25;;;;;;;5.05;2.45;;;23.10;63.90;;;;;;4942383;29;20678;-77
2022/10/07 10:32:20;;;;;;;4.72;2.20;;;23.10;63.40;;;;;;4949092;28;20238;-80
2022/10/07 10:34:56;;;;;;;3.88;1.98;;;23.20;63.00;;;;;;4951454;29;20940;-82
2022/10/07 10:37:30;;;;;;;8.73;2.45;;;23.20;63.50;;;;;;4946043;29;20248;-79
2022/10/07 10:40:08;;;;;;;5.88;2.08;;;23.20;62.70;;;;;;4952563;29;20198;-77
2022/10/07 10:42:44;;;;;;;5.82;2.13;;;23.30;62.40;;;;;;4946550;29;20215;-78
2022/10/07 10:45:31;;;;;;;4.13;2.40;;;23.40;62.50;;;;;;4950124;29;20602;-78
2022/10/07 10:48:28;;;;;;;4.22;2.13;;;23.40;60.80;;;;;;4956490;28;20238;-79
2022/10/07 10:51:06;;;;;;;4.78;2.15;;;23.50;60.60;;;;;;4946904;29;20208;-79
2022/10/07 10:53:44;;;;;;;6.90;1.98;;;23.50;60.20;;;;;;4946138;29;20198;-76
2022/10/07 10:56:25;;;;;;;5.38;1.80;;;23.60;60.30;;;;;;4950118;28;20199;-76
2022/10/07 10:59:14;;;;;;;3.45;2.10;;;23.70;60.00;;;;;;4948586;28;20277;-76
2022/10/07 11:01:45;;;;;;;4.35;2.17;;;23.70;60.00;;;;;;4953600;28;20262;-78
2022/10/07 11:04:25;;;;;;;5.38;2.13;;;23.70;59.90;;;;;;4950524;28;20289;-78
2022/10/07 11:07:00;;;;;;;6.95;2.63;;;23.80;59.90;;;;;;4944303;29;20206;-77
2022/10/07 11:09:37;;;;;;;3.35;1.92;;;23.80;60.00;;;;;;4953757;29;20218;-78
2022/10/07 11:12:25;;;;;;;3.35;1.73;;;23.80;59.40;;;;;;4950690;28;20278;-75
2022/10/07 11:15:00;;;;;;;5.70;1.98;;;23.80;59.40;;;;;;4947876;29;20202;-77
2022/10/07 11:17:36;;;;;;;7.90;2.50;;;23.80;59.20;;;;;;4952224;28;20671;-78
2022/10/07 11:20:15;;;;;;;3.35;1.92;;;23.90;58.40;;;;;;4949049;29;20194;-76
2022/10/07 11:22:52;;;;;;;5.13;1.83;;;23.90;58.10;;;;;;4951618;28;20198;-76
2022/10/07 11:25:27;;;;;;;3.47;1.90;;;24.00;57.70;;;;;;4942737;29;20257;-76
2022/10/07 11:28:01;;;;;;;5.90;1.85;;;24.10;58.20;;;;;;4949596;29;20201;-76
2022/10/07 11:30:40;;;;;;;3.88;1.90;;;24.10;58.10;;;;;;4950896;28;20611;-79
2022/10/07 11:33:15;;;;;;;4.88;1.80;;;24.10;58.20;;;;;;4953315;28;20190;-79
2022/10/07 11:35:51;;;;;;;4.57;1.70;;;24.10;58.20;;;;;;4951183;28;20253;-78
2022/10/07 11:38:24;;;;;;;3.88;2.10;;;24.10;58.40;;;;;;4946796;29;20232;-78
2022/10/07 11:40:56;;;;;;;3.75;2.15;;;24.20;57.30;;;;;;4954461;28;20194;-76
2022/10/07 11:43:27;;;;;;;2.95;1.80;;;24.20;56.50;;;;;;4950681;28;20635;-78
2022/10/07 11:45:59;;;;;;;3.72;1.85;;;24.10;56.00;;;;;;4951560;29;20637;-77
2022/10/07 11:48:35;;;;;;;3.92;2.08;;;24.10;56.00;;;;;;4943672;29;20218;-76
2022/10/07 11:51:07;;;;;;;6.65;2.80;;;24.20;56.30;;;;;;4951604;28;20312;-76
2022/10/07 11:53:39;;;;;;;5.68;2.88;;;24.10;56.50;;;;;;4953298;29;20205;-77
2022/10/07 11:56:19;;;;;;;4.88;3.25;;;24.10;55.80;;;;;;4952075;28;20198;-79
2022/10/07 11:58:57;;;;;;;7.47;3.58;;;24.10;56.00;;;;;;4946951;28;20668;-77
2022/10/07 12:01:50;;;;;;;6.13;3.28;;;24.20;56.30;;;;;;4950412;29;20660;-74
2022/10/07 12:04:37;;;;;;;6.38;3.58;;;24.20;56.30;;;;;;4945764;28;20668;-75
2022/10/07 12:07:55;;;;;;;6.60;4.07;;;24.20;56.60;;;;;;4951465;28;20565;-75
2022/10/07 12:10:27;;;;;;;6.25;4.10;;;24.20;55.80;;;;;;4949841;29;20683;-76
2022/10/07 12:12:59;;;;;;;6.78;4.40;;;24.20;55.90;;;;;;4943994;28;20198;-77
2022/10/07 12:15:34;;;;;;;10.55;4.43;;;24.30;56.00;;;;;;4943634;29;20230;-79
2022/10/07 12:18:27;;;;;;;6.93;5.10;;;24.30;55.80;;;;;;4950411;29;20811;-76
2022/10/07 12:21:07;;;;;;;8.95;5.38;;;24.30;56.00;;;;;;4945603;28;20799;-76
2022/10/07 12:23:45;;;;;;;6.50;4.30;;;24.30;56.00;;;;;;4948727;29;20285;-77
2022/10/07 12:26:43;;;;;;;8.73;4.43;;;24.30;55.50;;;;;;4943881;29;20239;-76
2022/10/07 12:30:01;;;;;;;6.22;3.83;;;24.30;55.90;;;;;;4939446;28;20202;-76
2022/10/07 12:33:00;;;;;;;6.07;4.13;;;24.30;55.90;;;;;;4947865;28;20707;-77
2022/10/07 12:35:42;;;;;;;6.03;3.88;;;24.40;55.90;;;;;;4951217;29;20612;-78
2022/10/07 12:38:23;;;;;;;6.47;3.65;;;24.30;54.80;;;;;;4955215;28;20202;-78
2022/10/07 12:41:03;;;;;;;11.55;4.25;;;24.20;54.70;;;;;;4948699;29;20250;-77
2022/10/07 12:43:45;;;;;;;8.68;4.47;;;24.20;55.00;;;;;;4943292;28;20225;-77
2022/10/07 12:46:18;;;;;;;8.20;4.25;;;24.20;55.50;;;;;;4946697;29;20230;-78
2022/10/07 12:48:53;;;;;;;8.07;3.55;;;24.30;55.60;;;;;;4947212;29;20806;-77
2022/10/07 12:51:28;;;;;;;3.80;3.17;;;24.40;55.60;;;;;;4945466;29;20295;-77
2022/10/07 12:53:58;;;;;;;7.30;4.45;;;24.50;56.00;;;;;;4953515;28;20201;-77
2022/10/07 12:56:29;;;;;;;8.35;3.38;;;24.50;55.90;;;;;;4941420;28;20686;-78
2022/10/07 12:59:47;;;;;;;8.43;3.60;;;24.40;55.10;;;;;;4948935;29;20245;-77
2022/10/07 13:02:57;;;;;;;5.38;3.20;;;24.30;55.60;;;;;;4949702;29;20213;-77
2022/10/07 13:05:59;;;;;;;10.07;3.45;;;24.30;55.40;;;;;;4947895;28;20261;-78
2022/10/07 13:09:01;;;;;;;6.20;2.90;;;24.20;55.00;;;;;;4948561;28;20198;-77
2022/10/07 13:11:53;;;;;;;5.55;2.92;;;24.30;55.40;;;;;;4949369;28;20229;-76
2022/10/07 13:14:28;;;;;;;10.30;3.25;;;24.40;55.70;;;;;;4938323;29;20241;-75
2022/10/07 13:17:03;;;;;;;5.80;3.85;;;24.50;55.60;;;;;;4948074;29;20724;-76
2022/10/07 13:19:42;;;;;;;9.45;4.25;;;24.50;55.70;;;;;;4945671;28;20723;-77
2022/10/07 13:22:13;;;;;;;8.90;3.90;;;24.50;55.60;;;;;;4946828;29;20241;-75
2022/10/07 13:24:48;;;;;;;6.53;2.83;;;24.50;55.50;;;;;;4951041;29;20220;-76